sensor_id;sensor_type;location;lat;lon;timestamp;pressure;altitude;pressure_sealevel;temperature;humidity
43364;BME280;40636;52.424;-1.948;2024-01-30T00:02:25;100269.13;;;10.81;87.77
43364;BME280;40636;52.424;-1.948;2024-01-30T00:04:52;100266.53;;;10.80;87.67
43364;BME280;40636;52.424;-1.948;2024-01-30T00:07:19;100274.34;;;10.78;87.54
43364;BME280;40636;52.424;-1.948;2024-01-30T00:09:47;100283.00;;;10.78;87.60
43364;BME280;40636;52.424;-1.948;2024-01-30T00:12:14;100283.00;;;10.78;87.68
43364;BME280;40636;52.424;-1.948;2024-01-30T00:14:42;100281.25;;;10.79;87.42
43364;BME280;40636;52.424;-1.948;2024-01-30T00:17:10;100274.34;;;10.80;87.97
43364;BME280;40636;52.424;-1.948;2024-01-30T00:19:36;100281.25;;;10.82;87.68
43364;BME280;40636;52.424;-1.948;2024-01-30T00:22:03;100279.53;;;10.80;87.24
43364;BME280;40636;52.424;-1.948;2024-01-30T00:24:30;100279.53;;;10.78;87.61
43364;BME280;40636;52.424;-1.948;2024-01-30T00:26:57;100276.09;;;10.76;87.70
43364;BME280;40636;52.424;-1.948;2024-01-30T00:29:24;100276.97;;;10.75;87.49
43364;BME280;40636;52.424;-1.948;2024-01-30T00:31:52;100279.56;;;10.73;87.52
43364;BME280;40636;52.424;-1.948;2024-01-30T00:34:19;100276.09;;;10.71;87.38
43364;BME280;40636;52.424;-1.948;2024-01-30T00:36:46;100271.78;;;10.69;87.62
43364;BME280;40636;52.424;-1.948;2024-01-30T00:39:12;100276.13;;;10.68;87.56
43364;BME280;40636;52.424;-1.948;2024-01-30T00:41:41;100270.94;;;10.67;87.81
43364;BME280;40636;52.424;-1.948;2024-01-30T00:44:08;100279.59;;;10.66;87.52
43364;BME280;40636;52.424;-1.948;2024-01-30T00:46:35;100282.19;;;10.64;87.26
43364;BME280;40636;52.424;-1.948;2024-01-30T00:49:02;100269.22;;;10.63;87.45
43364;BME280;40636;52.424;-1.948;2024-01-30T00:51:29;100277.00;;;10.63;87.30
43364;BME280;40636;52.424;-1.948;2024-01-30T00:53:56;100269.25;;;10.60;87.25
43364;BME280;40636;52.424;-1.948;2024-01-30T00:56:23;100277.03;;;10.58;87.22
43364;BME280;40636;52.424;-1.948;2024-01-30T00:58:50;100282.22;;;10.58;87.68
43364;BME280;40636;52.424;-1.948;2024-01-30T01:01:17;100279.63;;;10.57;87.85
43364;BME280;40636;52.424;-1.948;2024-01-30T01:03:44;100279.63;;;10.57;87.26
43364;BME280;40636;52.424;-1.948;2024-01-30T01:06:11;100277.91;;;10.56;87.55
43364;BME280;40636;52.424;-1.948;2024-01-30T01:08:38;100282.25;;;10.54;87.55
43364;BME280;40636;52.424;-1.948;2024-01-30T01:11:05;100282.25;;;10.52;87.46
43364;BME280;40636;52.424;-1.948;2024-01-30T01:13:32;100285.72;;;10.53;87.94
43364;BME280;40636;52.424;-1.948;2024-01-30T01:15:58;100288.31;;;10.51;87.74
43364;BME280;40636;52.424;-1.948;2024-01-30T01:18:25;100289.19;;;10.50;87.58
43364;BME280;40636;52.424;-1.948;2024-01-30T01:20:52;100293.53;;;10.50;87.46
43364;BME280;40636;52.424;-1.948;2024-01-30T01:23:19;100296.13;;;10.48;87.36
43364;BME280;40636;52.424;-1.948;2024-01-30T01:25:45;100292.66;;;10.48;87.70
43364;BME280;40636;52.424;-1.948;2024-01-30T01:28:12;100296.13;;;10.47;88.05
43364;BME280;40636;52.424;-1.948;2024-01-30T01:30:39;100294.41;;;10.44;87.39
43364;BME280;40636;52.424;-1.948;2024-01-30T01:33:06;100292.69;;;10.43;87.94
43364;BME280;40636;52.424;-1.948;2024-01-30T01:35:33;100294.41;;;10.44;87.58
43364;BME280;40636;52.424;-1.948;2024-01-30T01:38:00;100296.16;;;10.42;87.49
43364;BME280;40636;52.424;-1.948;2024-01-30T01:40:27;100299.63;;;10.41;87.67
43364;BME280;40636;52.424;-1.948;2024-01-30T01:42:55;100296.13;;;10.39;87.76
43364;BME280;40636;52.424;-1.948;2024-01-30T01:45:22;100288.34;;;10.39;87.76
43364;BME280;40636;52.424;-1.948;2024-01-30T01:47:52;100292.66;;;10.37;87.49
43364;BME280;40636;52.424;-1.948;2024-01-30T01:50:21;100291.81;;;10.36;88.12
43364;BME280;40636;52.424;-1.948;2024-01-30T01:52:48;100289.22;;;10.35;88.17
43364;BME280;40636;52.424;-1.948;2024-01-30T01:55:16;100286.63;;;10.35;87.95
43364;BME280;40636;52.424;-1.948;2024-01-30T01:57:49;100291.81;;;10.35;87.99
43364;BME280;40636;52.424;-1.948;2024-01-30T02:00:16;100295.28;;;10.35;88.36
43364;BME280;40636;52.424;-1.948;2024-01-30T02:02:45;100287.50;;;10.34;88.17
43364;BME280;40636;52.424;-1.948;2024-01-30T02:05:12;100284.03;;;10.32;88.49
43364;BME280;40636;52.424;-1.948;2024-01-30T02:07:40;100277.97;;;10.31;88.14
43364;BME280;40636;52.424;-1.948;2024-01-30T02:10:08;100297.88;;;10.31;88.09
43364;BME280;40636;52.424;-1.948;2024-01-30T02:12:36;100295.28;;;10.32;88.46
43364;BME280;40636;52.424;-1.948;2024-01-30T02:15:03;100298.75;;;10.31;87.95
43364;BME280;40636;52.424;-1.948;2024-01-30T02:17:31;100297.88;;;10.31;88.41
43364;BME280;40636;52.424;-1.948;2024-01-30T02:19:59;100291.84;;;10.29;88.41
43364;BME280;40636;52.424;-1.948;2024-01-30T02:22:26;100293.56;;;10.30;88.05
43364;BME280;40636;52.424;-1.948;2024-01-30T02:24:52;100282.31;;;10.28;88.17
43364;BME280;40636;52.424;-1.948;2024-01-30T02:27:19;100284.03;;;10.27;87.98
43364;BME280;40636;52.424;-1.948;2024-01-30T02:29:46;100290.97;;;10.27;88.01
43364;BME280;40636;52.424;-1.948;2024-01-30T02:32:13;100300.50;;;10.26;88.00
43364;BME280;40636;52.424;-1.948;2024-01-30T02:34:40;100312.59;;;10.27;87.79
43364;BME280;40636;52.424;-1.948;2024-01-30T02:37:06;100319.53;;;10.25;87.88
43364;BME280;40636;52.424;-1.948;2024-01-30T02:39:33;100309.16;;;10.24;88.51
43364;BME280;40636;52.424;-1.948;2024-01-30T02:42:00;100317.81;;;10.23;88.07
43364;BME280;40636;52.424;-1.948;2024-01-30T02:44:27;100313.50;;;10.22;88.09
43364;BME280;40636;52.424;-1.948;2024-01-30T02:46:53;100329.06;;;10.22;88.54
43364;BME280;40636;52.424;-1.948;2024-01-30T02:49:21;100329.06;;;10.22;87.92
43364;BME280;40636;52.424;-1.948;2024-01-30T02:51:48;100339.44;;;10.23;88.23
43364;BME280;40636;52.424;-1.948;2024-01-30T02:54:15;100335.13;;;10.22;88.20
43364;BME280;40636;52.424;-1.948;2024-01-30T02:56:42;100336.00;;;10.21;88.02
43364;BME280;40636;52.424;-1.948;2024-01-30T02:59:09;100344.63;;;10.19;88.25
43364;BME280;40636;52.424;-1.948;2024-01-30T03:01:44;100342.03;;;10.14;88.06
43364;BME280;40636;52.424;-1.948;2024-01-30T03:04:13;100349.81;;;10.11;87.84
43364;BME280;40636;52.424;-1.948;2024-01-30T03:06:45;100343.75;;;10.09;87.62
43364;BME280;40636;52.424;-1.948;2024-01-30T03:09:12;100351.56;;;10.04;87.60
43364;BME280;40636;52.424;-1.948;2024-01-30T03:11:40;100348.09;;;10.02;87.95
43364;BME280;40636;52.424;-1.948;2024-01-30T03:14:06;100356.75;;;10.01;87.69
43364;BME280;40636;52.424;-1.948;2024-01-30T03:16:34;100378.38;;;10.00;87.46
43364;BME280;40636;52.424;-1.948;2024-01-30T03:19:01;100393.94;;;9.96;87.12
43364;BME280;40636;52.424;-1.948;2024-01-30T03:21:29;100392.22;;;9.87;87.65
43364;BME280;40636;52.424;-1.948;2024-01-30T03:23:56;100396.50;;;9.80;86.89
43364;BME280;40636;52.424;-1.948;2024-01-30T03:26:22;100405.16;;;9.69;86.69
43364;BME280;40636;52.424;-1.948;2024-01-30T03:28:49;100412.06;;;9.61;86.66
43364;BME280;40636;52.424;-1.948;2024-01-30T03:31:16;100412.91;;;9.54;86.12
43364;BME280;40636;52.424;-1.948;2024-01-30T03:33:43;100417.22;;;9.45;85.81
43364;BME280;40636;52.424;-1.948;2024-01-30T03:36:10;100416.31;;;9.36;86.57
43364;BME280;40636;52.424;-1.948;2024-01-30T03:38:37;100421.50;;;9.30;85.75
43364;BME280;40636;52.424;-1.948;2024-01-30T03:41:07;100426.63;;;9.22;85.49
43364;BME280;40636;52.424;-1.948;2024-01-30T03:43:35;100424.00;;;9.16;85.41
43364;BME280;40636;52.424;-1.948;2024-01-30T03:46:02;100431.75;;;9.10;85.90
43364;BME280;40636;52.424;-1.948;2024-01-30T03:48:30;100436.91;;;9.05;85.93
43364;BME280;40636;52.424;-1.948;2024-01-30T03:50:56;100442.06;;;8.99;85.69
43364;BME280;40636;52.424;-1.948;2024-01-30T03:53:23;100447.22;;;8.95;85.35
43364;BME280;40636;52.424;-1.948;2024-01-30T03:55:50;100460.16;;;8.88;85.41
43364;BME280;40636;52.424;-1.948;2024-01-30T03:58:17;100459.25;;;8.80;85.44
43364;BME280;40636;52.424;-1.948;2024-01-30T04:00:44;100459.22;;;8.76;85.05
43364;BME280;40636;52.424;-1.948;2024-01-30T04:03:11;100470.44;;;8.75;85.06
43364;BME280;40636;52.424;-1.948;2024-01-30T04:05:38;100466.97;;;8.74;84.91
43364;BME280;40636;52.424;-1.948;2024-01-30T04:08:05;100462.63;;;8.70;85.40
43364;BME280;40636;52.424;-1.948;2024-01-30T04:10:32;100472.94;;;8.66;84.88
43364;BME280;40636;52.424;-1.948;2024-01-30T04:12:58;100466.00;;;8.62;85.88
43364;BME280;40636;52.424;-1.948;2024-01-30T04:15:26;100491.84;;;8.55;85.19
43364;BME280;40636;52.424;-1.948;2024-01-30T04:17:53;100487.47;;;8.47;85.02
43364;BME280;40636;52.424;-1.948;2024-01-30T04:20:20;100501.25;;;8.43;85.32
43364;BME280;40636;52.424;-1.948;2024-01-30T04:22:47;100499.47;;;8.37;84.96
43364;BME280;40636;52.424;-1.948;2024-01-30T04:25:13;100514.13;;;8.34;84.72
43364;BME280;40636;52.424;-1.948;2024-01-30T04:27:40;100524.41;;;8.29;84.67
43364;BME280;40636;52.424;-1.948;2024-01-30T04:30:08;100513.16;;;8.25;84.54
43364;BME280;40636;52.424;-1.948;2024-01-30T04:32:35;100520.03;;;8.23;84.87
43364;BME280;40636;52.424;-1.948;2024-01-30T04:35:03;100534.66;;;8.18;84.80
43364;BME280;40636;52.424;-1.948;2024-01-30T04:37:36;100535.50;;;8.16;84.76
43364;BME280;40636;52.424;-1.948;2024-01-30T04:40:03;100538.03;;;8.10;84.22
43364;BME280;40636;52.424;-1.948;2024-01-30T04:42:30;100534.47;;;8.03;84.11
43364;BME280;40636;52.424;-1.948;2024-01-30T04:44:57;100535.31;;;8.02;83.76
43364;BME280;40636;52.424;-1.948;2024-01-30T04:47:23;100537.00;;;7.97;84.27
43364;BME280;40636;52.424;-1.948;2024-01-30T04:49:51;100558.50;;;7.91;84.00
43364;BME280;40636;52.424;-1.948;2024-01-30T04:52:18;100555.84;;;7.85;83.37
43364;BME280;40636;52.424;-1.948;2024-01-30T04:54:45;100558.41;;;7.82;83.75
43364;BME280;40636;52.424;-1.948;2024-01-30T04:57:12;100573.81;;;7.73;82.69
43364;BME280;40636;52.424;-1.948;2024-01-30T04:59:39;100580.63;;;7.68;82.88
43364;BME280;40636;52.424;-1.948;2024-01-30T05:02:06;100580.56;;;7.62;82.78
43364;BME280;40636;52.424;-1.948;2024-01-30T05:04:33;100584.75;;;7.52;82.12
43364;BME280;40636;52.424;-1.948;2024-01-30T05:07:00;100583.75;;;7.44;82.77
43364;BME280;40636;52.424;-1.948;2024-01-30T05:09:27;100590.59;;;7.41;82.24
43364;BME280;40636;52.424;-1.948;2024-01-30T05:11:55;100589.69;;;7.37;82.69
43364;BME280;40636;52.424;-1.948;2024-01-30T05:14:21;100609.44;;;7.34;82.85
43364;BME280;40636;52.424;-1.948;2024-01-30T05:16:48;100615.47;;;7.33;82.77
43364;BME280;40636;52.424;-1.948;2024-01-30T05:19:15;100630.09;;;7.30;82.96
43364;BME280;40636;52.424;-1.948;2024-01-30T05:21:42;100624.88;;;7.27;82.40
43364;BME280;40636;52.424;-1.948;2024-01-30T05:24:08;100624.84;;;7.26;82.57
43364;BME280;40636;52.424;-1.948;2024-01-30T05:26:37;100619.69;;;7.26;82.29
43364;BME280;40636;52.424;-1.948;2024-01-30T05:29:05;100633.41;;;7.23;82.55
43364;BME280;40636;52.424;-1.948;2024-01-30T05:31:33;100641.97;;;7.19;82.60
43364;BME280;40636;52.424;-1.948;2024-01-30T05:34:01;100644.50;;;7.16;82.31
43364;BME280;40636;52.424;-1.948;2024-01-30T05:36:28;100646.22;;;7.16;81.99
43364;BME280;40636;52.424;-1.948;2024-01-30T05:38:56;100651.41;;;7.17;82.23
43364;BME280;40636;52.424;-1.948;2024-01-30T05:41:23;100646.19;;;7.13;81.72
43364;BME280;40636;52.424;-1.948;2024-01-30T05:43:50;100651.28;;;7.10;81.85
43364;BME280;40636;52.424;-1.948;2024-01-30T05:46:17;100658.13;;;7.06;82.09
43364;BME280;40636;52.424;-1.948;2024-01-30T05:48:45;100659.78;;;7.03;81.45
43364;BME280;40636;52.424;-1.948;2024-01-30T05:51:12;100658.91;;;7.01;81.98
43364;BME280;40636;52.424;-1.948;2024-01-30T05:53:40;100676.97;;;7.01;81.84
43364;BME280;40636;52.424;-1.948;2024-01-30T05:56:07;100670.06;;;7.00;81.89
43364;BME280;40636;52.424;-1.948;2024-01-30T05:58:33;100681.19;;;6.95;81.71
43364;BME280;40636;52.424;-1.948;2024-01-30T06:01:00;100688.03;;;6.93;82.11
43364;BME280;40636;52.424;-1.948;2024-01-30T06:03:27;100678.53;;;6.92;81.97
43364;BME280;40636;52.424;-1.948;2024-01-30T06:05:54;100707.72;;;6.88;81.86
43364;BME280;40636;52.424;-1.948;2024-01-30T06:08:21;100706.84;;;6.86;81.76
43364;BME280;40636;52.424;-1.948;2024-01-30T06:10:47;100717.09;;;6.83;81.81
43364;BME280;40636;52.424;-1.948;2024-01-30T06:13:14;100731.72;;;6.81;81.47
43364;BME280;40636;52.424;-1.948;2024-01-30T06:15:41;100734.25;;;6.80;82.05
43364;BME280;40636;52.424;-1.948;2024-01-30T06:18:08;100741.16;;;6.81;81.75
43364;BME280;40636;52.424;-1.948;2024-01-30T06:20:35;100753.19;;;6.80;81.93
43364;BME280;40636;52.424;-1.948;2024-01-30T06:23:02;100754.91;;;6.80;81.92
43364;BME280;40636;52.424;-1.948;2024-01-30T06:25:29;100762.66;;;6.80;81.78
43364;BME280;40636;52.424;-1.948;2024-01-30T06:27:55;100779.03;;;6.80;81.79
43364;BME280;40636;52.424;-1.948;2024-01-30T06:30:22;100777.31;;;6.81;81.64
43364;BME280;40636;52.424;-1.948;2024-01-30T06:32:49;100787.66;;;6.81;82.12
43364;BME280;40636;52.424;-1.948;2024-01-30T06:35:16;100796.28;;;6.83;81.63
43364;BME280;40636;52.424;-1.948;2024-01-30T06:37:44;100795.41;;;6.82;81.78
43364;BME280;40636;52.424;-1.948;2024-01-30T06:40:11;100812.66;;;6.83;82.06
43364;BME280;40636;52.424;-1.948;2024-01-30T06:42:38;100796.28;;;6.83;81.65
43364;BME280;40636;52.424;-1.948;2024-01-30T06:45:05;100802.34;;;6.85;81.48
43364;BME280;40636;52.424;-1.948;2024-01-30T06:47:32;100809.22;;;6.84;81.92
43364;BME280;40636;52.424;-1.948;2024-01-30T06:49:58;100817.00;;;6.86;81.97
43364;BME280;40636;52.424;-1.948;2024-01-30T06:52:26;100820.41;;;6.83;81.89
43364;BME280;40636;52.424;-1.948;2024-01-30T06:54:53;100817.84;;;6.85;81.89
43364;BME280;40636;52.424;-1.948;2024-01-30T06:57:21;100832.47;;;6.84;81.91
43364;BME280;40636;52.424;-1.948;2024-01-30T06:59:48;100825.56;;;6.83;81.85
43364;BME280;40636;52.424;-1.948;2024-01-30T07:02:14;100829.00;;;6.82;81.31
43364;BME280;40636;52.424;-1.948;2024-01-30T07:04:41;100846.19;;;6.82;81.23
43364;BME280;40636;52.424;-1.948;2024-01-30T07:07:12;100847.03;;;6.81;81.53
43364;BME280;40636;52.424;-1.948;2024-01-30T07:09:42;100853.03;;;6.80;80.91
43364;BME280;40636;52.424;-1.948;2024-01-30T07:12:08;100860.81;;;6.81;81.62
43364;BME280;40636;52.424;-1.948;2024-01-30T07:14:35;100870.28;;;6.81;81.20
43364;BME280;40636;52.424;-1.948;2024-01-30T07:17:02;100863.38;;;6.80;81.12
43364;BME280;40636;52.424;-1.948;2024-01-30T07:19:29;100866.78;;;6.79;81.54
43364;BME280;40636;52.424;-1.948;2024-01-30T07:21:56;100874.56;;;6.80;81.55
43364;BME280;40636;52.424;-1.948;2024-01-30T07:24:22;100880.56;;;6.79;80.97
43364;BME280;40636;52.424;-1.948;2024-01-30T07:26:49;100884.84;;;6.77;81.27
43364;BME280;40636;52.424;-1.948;2024-01-30T07:29:16;100887.41;;;6.77;81.30
43364;BME280;40636;52.424;-1.948;2024-01-30T07:31:43;100896.91;;;6.78;81.80
43364;BME280;40636;52.424;-1.948;2024-01-30T07:34:09;100898.50;;;6.72;82.04
43364;BME280;40636;52.424;-1.948;2024-01-30T07:36:37;100907.00;;;6.68;81.69
43364;BME280;40636;52.424;-1.948;2024-01-30T07:39:05;100907.00;;;6.68;82.47
43364;BME280;40636;52.424;-1.948;2024-01-30T07:41:32;100909.59;;;6.68;82.40
43364;BME280;40636;52.424;-1.948;2024-01-30T07:43:59;100913.00;;;6.66;82.12
43364;BME280;40636;52.424;-1.948;2024-01-30T07:46:25;100924.13;;;6.64;82.71
43364;BME280;40636;52.424;-1.948;2024-01-30T07:48:52;100925.84;;;6.63;82.63
43364;BME280;40636;52.424;-1.948;2024-01-30T07:51:21;100939.66;;;6.65;82.55
43364;BME280;40636;52.424;-1.948;2024-01-30T07:53:48;100937.13;;;6.67;82.73
43364;BME280;40636;52.424;-1.948;2024-01-30T07:56:14;100930.28;;;6.69;82.31
43364;BME280;40636;52.424;-1.948;2024-01-30T07:58:42;100941.44;;;6.68;82.49
43364;BME280;40636;52.424;-1.948;2024-01-30T08:01:09;100940.59;;;6.69;82.35
43364;BME280;40636;52.424;-1.948;2024-01-30T08:03:36;100940.59;;;6.69;82.03
43364;BME280;40636;52.424;-1.948;2024-01-30T08:06:03;100952.59;;;6.67;81.97
43364;BME280;40636;52.424;-1.948;2024-01-30T08:08:30;100952.59;;;6.67;82.10
43364;BME280;40636;52.424;-1.948;2024-01-30T08:10:57;100957.78;;;6.67;82.01
43364;BME280;40636;52.424;-1.948;2024-01-30T08:13:24;100948.31;;;6.68;81.68
43364;BME280;40636;52.424;-1.948;2024-01-30T08:15:51;100949.19;;;6.68;81.98
43364;BME280;40636;52.424;-1.948;2024-01-30T08:18:18;100952.59;;;6.67;81.28
43364;BME280;40636;52.424;-1.948;2024-01-30T08:20:44;100957.78;;;6.67;81.36
43364;BME280;40636;52.424;-1.948;2024-01-30T08:23:11;100956.91;;;6.66;81.52
43364;BME280;40636;52.424;-1.948;2024-01-30T08:25:38;100954.31;;;6.66;81.27
43364;BME280;40636;52.424;-1.948;2024-01-30T08:28:05;100968.09;;;6.67;81.37
43364;BME280;40636;52.424;-1.948;2024-01-30T08:30:32;100971.59;;;6.69;81.02
43364;BME280;40636;52.424;-1.948;2024-01-30T08:32:59;100968.09;;;6.67;81.15
43364;BME280;40636;52.424;-1.948;2024-01-30T08:35:26;100990.41;;;6.65;81.09
43364;BME280;40636;52.424;-1.948;2024-01-30T08:37:53;100992.16;;;6.66;81.17
43364;BME280;40636;52.424;-1.948;2024-01-30T08:40:20;100993.88;;;6.65;81.00
43364;BME280;40636;52.424;-1.948;2024-01-30T08:42:47;100999.91;;;6.66;80.73
43364;BME280;40636;52.424;-1.948;2024-01-30T08:45:14;101011.97;;;6.67;81.10
43364;BME280;40636;52.424;-1.948;2024-01-30T08:47:41;101021.47;;;6.68;80.83
43364;BME280;40636;52.424;-1.948;2024-01-30T08:50:08;101027.59;;;6.72;80.46
43364;BME280;40636;52.424;-1.948;2024-01-30T08:52:37;101032.78;;;6.73;81.43
43364;BME280;40636;52.424;-1.948;2024-01-30T08:55:04;101051.69;;;6.72;80.37
43364;BME280;40636;52.424;-1.948;2024-01-30T08:57:31;101055.97;;;6.72;80.59
43364;BME280;40636;52.424;-1.948;2024-01-30T08:59:58;101057.69;;;6.71;80.15
43364;BME280;40636;52.424;-1.948;2024-01-30T09:02:24;101064.56;;;6.71;79.90
43364;BME280;40636;52.424;-1.948;2024-01-30T09:04:51;101061.97;;;6.71;80.75
43364;BME280;40636;52.424;-1.948;2024-01-30T09:07:18;101072.31;;;6.71;80.57
43364;BME280;40636;52.424;-1.948;2024-01-30T09:09:45;101067.97;;;6.70;80.85
43364;BME280;40636;52.424;-1.948;2024-01-30T09:12:12;101084.31;;;6.69;80.47
43364;BME280;40636;52.424;-1.948;2024-01-30T09:14:39;101090.31;;;6.68;80.46
43364;BME280;40636;52.424;-1.948;2024-01-30T09:17:09;101097.25;;;6.70;80.19
43364;BME280;40636;52.424;-1.948;2024-01-30T09:19:36;101104.16;;;6.71;80.30
43364;BME280;40636;52.424;-1.948;2024-01-30T09:22:03;101101.59;;;6.71;80.52
43364;BME280;40636;52.424;-1.948;2024-01-30T09:24:30;101110.25;;;6.73;80.84
43364;BME280;40636;52.424;-1.948;2024-01-30T09:26:57;101118.91;;;6.75;80.29
43364;BME280;40636;52.424;-1.948;2024-01-30T09:29:24;101116.44;;;6.80;80.66
43364;BME280;40636;52.424;-1.948;2024-01-30T09:31:51;101119.09;;;6.83;80.51
43364;BME280;40636;52.424;-1.948;2024-01-30T09:34:18;101126.06;;;6.87;80.41
43364;BME280;40636;52.424;-1.948;2024-01-30T09:36:45;101134.69;;;6.87;80.53
43364;BME280;40636;52.424;-1.948;2024-01-30T09:39:12;101140.66;;;6.85;80.09
43364;BME280;40636;52.424;-1.948;2024-01-30T09:42:26;101146.69;;;6.85;79.52
43364;BME280;40636;52.424;-1.948;2024-01-30T09:44:54;101161.41;;;6.88;79.75
43364;BME280;40636;52.424;-1.948;2024-01-30T09:47:22;101163.88;;;6.83;80.06
43364;BME280;40636;52.424;-1.948;2024-01-30T09:49:49;101161.16;;;6.79;79.72
43364;BME280;40636;52.424;-1.948;2024-01-30T09:52:17;101162.03;;;6.79;79.69
43364;BME280;40636;52.424;-1.948;2024-01-30T09:54:45;101180.13;;;6.79;79.85
43364;BME280;40636;52.424;-1.948;2024-01-30T09:57:12;101177.53;;;6.79;79.61
43364;BME280;40636;52.424;-1.948;2024-01-30T09:59:38;101185.28;;;6.79;79.61
43364;BME280;40636;52.424;-1.948;2024-01-30T10:02:06;101198.28;;;6.82;79.70
43364;BME280;40636;52.424;-1.948;2024-01-30T10:04:34;101203.50;;;6.85;79.62
43364;BME280;40636;52.424;-1.948;2024-01-30T10:07:03;101203.44;;;6.82;79.11
43364;BME280;40636;52.424;-1.948;2024-01-30T10:09:33;101203.44;;;6.82;79.16
43364;BME280;40636;52.424;-1.948;2024-01-30T10:12:02;101205.09;;;6.80;79.27
43364;BME280;40636;52.424;-1.948;2024-01-30T10:14:30;101213.78;;;6.82;79.76
43364;BME280;40636;52.424;-1.948;2024-01-30T10:16:57;101221.47;;;6.81;79.71
43364;BME280;40636;52.424;-1.948;2024-01-30T10:19:24;101218.03;;;6.80;79.42
43364;BME280;40636;52.424;-1.948;2024-01-30T10:21:51;101227.44;;;6.78;79.41
43364;BME280;40636;52.424;-1.948;2024-01-30T10:24:18;101237.69;;;6.75;79.88
43364;BME280;40636;52.424;-1.948;2024-01-30T10:26:45;101238.50;;;6.74;79.07
43364;BME280;40636;52.424;-1.948;2024-01-30T10:29:12;101249.63;;;6.72;79.33
43364;BME280;40636;52.424;-1.948;2024-01-30T10:31:39;101254.75;;;6.70;79.67
43364;BME280;40636;52.424;-1.948;2024-01-30T10:34:06;101266.84;;;6.71;79.16
43364;BME280;40636;52.424;-1.948;2024-01-30T10:36:46;101260.78;;;6.71;79.92
43364;BME280;40636;52.424;-1.948;2024-01-30T10:39:17;101266.84;;;6.71;80.07
43364;BME280;40636;52.424;-1.948;2024-01-30T10:41:44;101285.00;;;6.74;80.37
43364;BME280;40636;52.424;-1.948;2024-01-30T10:44:13;101277.22;;;6.73;80.62
43364;BME280;40636;52.424;-1.948;2024-01-30T10:46:49;101282.41;;;6.74;80.55
43364;BME280;40636;52.424;-1.948;2024-01-30T10:49:18;101290.13;;;6.73;80.78
43364;BME280;40636;52.424;-1.948;2024-01-30T10:51:46;101289.19;;;6.71;80.66
43364;BME280;40636;52.424;-1.948;2024-01-30T10:54:15;101304.75;;;6.72;80.82
43364;BME280;40636;52.424;-1.948;2024-01-30T10:56:42;101307.34;;;6.74;81.32
43364;BME280;40636;52.424;-1.948;2024-01-30T10:59:11;101303.19;;;6.79;81.44
43364;BME280;40636;52.424;-1.948;2024-01-30T11:01:39;101311.91;;;6.82;81.28
43364;BME280;40636;52.424;-1.948;2024-01-30T11:04:07;101315.28;;;6.80;80.77
43364;BME280;40636;52.424;-1.948;2024-01-30T11:06:41;101328.22;;;6.81;80.97
43364;BME280;40636;52.424;-1.948;2024-01-30T11:09:11;101333.28;;;6.77;80.94
43364;BME280;40636;52.424;-1.948;2024-01-30T11:11:56;101328.91;;;6.74;80.78
43364;BME280;40636;52.424;-1.948;2024-01-30T11:14:27;101336.69;;;6.76;80.95
43364;BME280;40636;52.424;-1.948;2024-01-30T11:16:57;101334.22;;;6.80;80.74
43364;BME280;40636;52.424;-1.948;2024-01-30T11:19:25;101352.34;;;6.82;80.21
43364;BME280;40636;52.424;-1.948;2024-01-30T11:21:53;101344.66;;;6.83;80.94
43364;BME280;40636;52.424;-1.948;2024-01-30T11:24:21;101340.41;;;6.85;80.32
43364;BME280;40636;52.424;-1.948;2024-01-30T11:26:57;101349.03;;;6.86;80.68
43364;BME280;40636;52.424;-1.948;2024-01-30T11:29:28;101359.25;;;6.83;79.68
43364;BME280;40636;52.424;-1.948;2024-01-30T11:31:56;101350.50;;;6.78;79.65
43364;BME280;40636;52.424;-1.948;2024-01-30T11:34:24;101344.44;;;6.76;79.02
43364;BME280;40636;52.424;-1.948;2024-01-30T11:37:03;101341.84;;;6.76;79.25
43364;BME280;40636;52.424;-1.948;2024-01-30T11:39:35;101347.88;;;6.76;79.20
43364;BME280;40636;52.424;-1.948;2024-01-30T11:42:04;101350.50;;;6.78;79.30
43364;BME280;40636;52.424;-1.948;2024-01-30T11:44:32;101352.31;;;6.80;79.56
43364;BME280;40636;52.424;-1.948;2024-01-30T11:46:58;101346.22;;;6.78;79.28
43364;BME280;40636;52.424;-1.948;2024-01-30T11:49:25;101366.84;;;6.77;79.58
43364;BME280;40636;52.424;-1.948;2024-01-30T11:51:52;101352.31;;;6.80;79.64
43364;BME280;40636;52.424;-1.948;2024-01-30T11:54:20;101357.69;;;6.88;79.82
43364;BME280;40636;52.424;-1.948;2024-01-30T11:56:47;101357.78;;;6.91;79.38
43364;BME280;40636;52.424;-1.948;2024-01-30T11:59:14;101377.56;;;6.90;79.21
43364;BME280;40636;52.424;-1.948;2024-01-30T12:01:41;101393.06;;;6.90;79.62
43364;BME280;40636;52.424;-1.948;2024-01-30T12:04:09;101391.41;;;6.92;79.52
43364;BME280;40636;52.424;-1.948;2024-01-30T12:06:37;101392.22;;;6.91;79.54
43364;BME280;40636;52.424;-1.948;2024-01-30T12:09:05;101393.34;;;7.00;79.69
43364;BME280;40636;52.424;-1.948;2024-01-30T12:11:32;101389.19;;;7.05;79.82
43364;BME280;40636;52.424;-1.948;2024-01-30T12:14:00;101392.59;;;7.04;78.79
43364;BME280;40636;52.424;-1.948;2024-01-30T12:16:26;101392.59;;;7.04;78.70
43364;BME280;40636;52.424;-1.948;2024-01-30T12:19:00;101398.78;;;7.09;79.54
43364;BME280;40636;52.424;-1.948;2024-01-30T12:21:29;101422.91;;;7.09;79.09
43364;BME280;40636;52.424;-1.948;2024-01-30T12:23:57;101416.94;;;7.12;79.47
43364;BME280;40636;52.424;-1.948;2024-01-30T12:26:24;101416.16;;;7.14;79.75
43364;BME280;40636;52.424;-1.948;2024-01-30T12:28:55;101417.94;;;7.17;78.88
43364;BME280;40636;52.424;-1.948;2024-01-30T12:31:28;101416.28;;;7.19;78.64
43364;BME280;40636;52.424;-1.948;2024-01-30T12:33:55;101411.03;;;7.16;78.26
43364;BME280;40636;52.424;-1.948;2024-01-30T12:36:25;101407.50;;;7.12;77.76
43364;BME280;40636;52.424;-1.948;2024-01-30T12:38:52;101407.41;;;7.09;76.91
43364;BME280;40636;52.424;-1.948;2024-01-30T12:41:20;101420.41;;;7.12;77.28
43364;BME280;40636;52.424;-1.948;2024-01-30T12:43:47;101414.38;;;7.12;76.98
43364;BME280;40636;52.424;-1.948;2024-01-30T12:46:17;101426.41;;;7.11;75.24
43364;BME280;40636;52.424;-1.948;2024-01-30T12:48:44;101433.41;;;7.15;75.49
43364;BME280;40636;52.424;-1.948;2024-01-30T12:51:11;101436.91;;;7.17;75.10